x

West Santa Barbara 38 Nm West Of Santa Barbara, Ca (46054) Wave Buoy

10:50 - Thu 25th Aug 2016 All times are PDT. -7 hours from GMT.

  • Sig Wave height 3.3ft
  • Swell Direction
  • Peak Period 5s
  • Average Period 5s
  • Wind
    18mph, 20mph gusts
  • Sea Temp 62°f
  • Luft Temp 58°f
  • Sea Pressure 1015.2mb
  • West Santa Barbara  38 Nm West Of Santa Barbara, Ca
  • West Santa Barbara  38 Nm West Of Santa Barbara, Ca

More Historic Weather Station data

Upgrade to MSW Pro to gain access to the past 30 days of data for over 8000 Wavebouys and Weather Stations around the globe.

Join Pro

Comparision Forecast

View Surf forecast
   
Do 08/25 10:50 3.5ft 5s 5s 18 20 mph 1015.2mb 62f 58f
9:50 3.5ft 5s 5s 18 20 mph 1015.1mb 62f 58f
8:50 3.5ft 5s 5s 18 22 mph 1014.9mb 62f 58f
7:50 3.5ft 6s 5s 20 22 mph 1014.7mb 61f 58f
6:50 4ft 5s 4s 22 27 mph 1014.3mb 61f 58f
5:50 4ft 5s 4s 20 25 mph 1013.9mb 61f 58f
4:50 4ft 5s 5s 22 27 mph 1013.8mb 61f 58f
3:50 4ft 6s 5s 22 27 mph 1013.7mb 60f 58f
2:50 4.5ft 6s 5s 22 27 mph 1013.9mb 60f 58f
1:50 4ft 5s 4s 25 29 mph 1013.9mb 59f 58f
12:50 4.5ft 5s 5s 25 29 mph 1014.2mb 60f 58f
Mi 08/24 11:50 4.5ft 5s 5s 25 29 mph 1014.5mb 60f 58f
10:50 4.5ft 5s 5s 25 29 mph 1014.8mb 59f 59f
9:50 4.5ft 5s 5s 25 29 mph 1014.9mb 60f 59f
7:50 5ft 6s 5s 27 34 mph 1014.3mb 60f 59f
6:50 4.5ft 5s 5s 27 34 mph 1014mb 60f 59f
5:50 5ft 5s 5s 29 34 mph 1014mb 60f 59f
4:50 5ft 5s 5s 27 34 mph 1014.6mb 59f 59f
3:50 4.5ft 5s 5s 27 31 mph 1015.1mb 59f 59f
2:50 4.5ft 5s 5s 25 29 mph 1015.9mb 60f 59f
1:50 4ft 5s 4s 27 31 mph 1016.4mb 60f 59f
12:50 4.5ft 6s 5s 25 29 mph 1016.9mb 60f 58f
11:50 4ft 5s 4s 27 31 mph 1017.5mb 61f 58f
10:50 4ft 5s 4s 25 29 mph 1018.2mb 61f 58f
9:50 4ft 5s  -  25 29 mph 1018.2mb 60f 58f
8:50 4.5ft 6s 5s 25 31 mph 1018.1mb 60f 58f
7:50 4.5ft 6s 5s 25 31 mph 1017.8mb 60f 58f
6:50 5ft 5s 5s 27 31 mph 1017.1mb 61f 58f
5:50 5ft 5s 5s 29 34 mph 1016.4mb 61f 58f
4:50 5ft 6s 5s 29 34 mph 1016.3mb 61f 58f
3:50 5ft 6s 5s 27 31 mph 1016.3mb 61f 58f
2:50 4.5ft 5s 5s 27 31 mph 1016.4mb 60f 58f
1:50 5ft 6s 5s 27 31 mph 1016.6mb 60f 58f
12:50 4.5ft 5s 5s 27 34 mph 1016.6mb 60f 59f
Di 08/23 11:50 4.5ft 5s 5s 25 31 mph 1017.1mb 60f 59f
10:50 4.5ft 5s 5s 25 29 mph 1017.5mb 59f 59f
9:50 4.5ft 6s 5s 25 29 mph 1017.7mb 60f 59f
8:50 4.5ft 5s 5s 27 31 mph 1017.2mb 60f 59f
7:50 5ft 5s 5s 27 31 mph 1016.6mb 60f 60f
6:50 4.5ft 5s 5s 27 34 mph 1016.2mb 60f 60f
5:50 4.5ft 5s 5s 25 29 mph 1016.3mb 60f 60f
4:50 4.5ft 5s 4s 25 31 mph 1016.6mb 60f 60f
3:50 4ft 5s 4s 27 34 mph 1016.8mb 60f 60f
2:50 4ft 5s 4s 25 29 mph 1017.5mb 61f 60f
1:50 3.5ft 14s 4s 25 29 mph 1017.9mb 61f 60f
12:50 3.5ft 13s 4s 20 25 mph 1018.1mb 60f 60f
11:50 3.5ft 4s 4s 22 25 mph 1018.2mb 61f 60f
10:50 3.5ft 13s 5s 22 27 mph 1018.2mb 62f 59f
9:50 4ft 5s 5s 25 29 mph 1017.6mb 63f 60f
8:50 4ft 5s 4s 27 31 mph 1016.9mb 63f 59f
7:50 4ft 5s 5s 27 31 mph 1016mb 63f 59f
6:50 4ft 4s 5s 25 29 mph 1015.4mb 63f 59f
5:50 4ft 5s 5s 25 27 mph 1014.6mb 64f 59f
4:50 4ft 12s 5s 22 25 mph 1014.5mb 63f 59f
3:50 4ft 15s 5s 22 27 mph 1014.3mb 62f 59f
2:50 4ft 5s 5s 25 27 mph 1014.1mb 61f 59f
1:50 4.5ft 5s 5s 22 27 mph 1014.2mb 60f 59f
12:50 4ft 5s 5s 25 29 mph 1014.2mb 59f 59f
Mo 08/22 11:50 4.5ft 15s 5s 25 29 mph 1014.4mb 60f 60f
10:50 4ft 15s 5s 22 29 mph 1014.5mb 60f 60f
9:50 4.5ft 15s 5s 22 27 mph 1014.2mb 60f 60f
8:50 4ft 15s 5s 22 27 mph 1013.9mb 60f 60f
7:50 4.5ft 15s 5s 22 27 mph 1013.6mb 61f 60f
6:50 4.5ft 15s 5s 22 27 mph 1013.1mb 61f 61f
5:50 4.5ft 14s 5s 22 29 mph 1013.4mb 62f 60f
4:50 4.5ft 15s 5s 25 27 mph 1013.3mb 63f 61f
3:50 4ft 15s 5s 22 27 mph 1013.5mb 63f 61f
2:50 4ft 14s 5s 22 25 mph 1013.6mb 62f 60f
1:50 4.5ft 15s 5s 22 25 mph 1013.9mb 62f 60f
12:50 4ft 15s 5s 22 25 mph 1014mb 63f 61f
11:50 3.5ft 15s 5s 18 25 mph 1014.5mb 62f 60f
10:50 4ft 15s 5s 18 22 mph 1014.4mb 61f 60f
9:50 4ft 15s 6s 20 25 mph 1014.1mb 61f 60f
8:50 4.5ft 10s 6s 20 25 mph 1013.8mb 63f 60f
7:50 4.5ft 10s 5s 20 25 mph 1013.1mb 62f 60f
6:50 4.5ft 15s 5s 22 27 mph 1012.6mb 62f 60f
5:50 4.5ft 15s 5s 22 27 mph 1012mb 61f 59f
4:50 4.5ft 5s 5s 22 27 mph 1012mb 61f 59f
3:50 4.5ft 5s 5s 25 29 mph 1012mb 60f 59f
2:50 4.5ft 5s 5s 25 29 mph 1011.8mb 60f 59f
1:50 4.5ft 16s 5s 22 27 mph 1012mb 60f 60f
12:50 5ft 4s 5s 25 29 mph 1011.9mb 60f 60f
So 08/21 11:50 5ft 16s 5s 22 27 mph 1012mb 60f 59f
10:50 4.5ft 16s 5s 22 25 mph 1012.1mb 60f 59f
9:50 5ft 5s 5s 22 27 mph 1012.2mb 61f 60f
7:50 4.5ft 11s 5s 25 29 mph 1011.7mb 61f 60f
6:50 4.5ft 14s 5s 25 29 mph 1011.8mb 61f 60f